sensor_id;sensor_type;location;lat;lon;timestamp;temperature;humidity
83472;SHT30;74051;47.120;18.370;2024-01-07T00:00:10;7.07;94.47
83472;SHT30;74051;47.120;18.370;2024-01-07T00:02:37;7.04;94.27
83472;SHT30;74051;47.120;18.370;2024-01-07T00:05:03;7.07;94.25
83472;SHT30;74051;47.120;18.370;2024-01-07T00:07:30;7.07;94.40
83472;SHT30;74051;47.120;18.370;2024-01-07T00:09:57;7.04;94.17
83472;SHT30;74051;47.120;18.370;2024-01-07T00:12:23;7.04;93.98
83472;SHT30;74051;47.120;18.370;2024-01-07T00:14:51;7.08;94.24
83472;SHT30;74051;47.120;18.370;2024-01-07T00:17:17;7.00;94.11
83472;SHT30;74051;47.120;18.370;2024-01-07T00:19:43;7.00;94.22
83472;SHT30;74051;47.120;18.370;2024-01-07T00:22:10;7.08;94.34
83472;SHT30;74051;47.120;18.370;2024-01-07T00:24:36;7.00;94.27
83472;SHT30;74051;47.120;18.370;2024-01-07T00:27:02;7.03;94.42
83472;SHT30;74051;47.120;18.370;2024-01-07T00:29:29;7.03;94.16
83472;SHT30;74051;47.120;18.370;2024-01-07T00:31:55;7.00;94.24
83472;SHT30;74051;47.120;18.370;2024-01-07T00:34:22;6.98;94.13
83472;SHT30;74051;47.120;18.370;2024-01-07T00:36:49;6.97;93.96
83472;SHT30;74051;47.120;18.370;2024-01-07T00:39:15;6.93;94.49
83472;SHT30;74051;47.120;18.370;2024-01-07T00:41:42;6.93;94.71
83472;SHT30;74051;47.120;18.370;2024-01-07T00:44:08;6.94;94.61
83472;SHT30;74051;47.120;18.370;2024-01-07T00:46:34;6.93;94.56
83472;SHT30;74051;47.120;18.370;2024-01-07T00:49:01;6.90;94.38
83472;SHT30;74051;47.120;18.370;2024-01-07T00:51:27;6.90;94.31
83472;SHT30;74051;47.120;18.370;2024-01-07T00:53:54;6.96;94.54
83472;SHT30;74051;47.120;18.370;2024-01-07T00:56:20;6.96;94.54
83472;SHT30;74051;47.120;18.370;2024-01-07T00:58:47;7.00;94.45
83472;SHT30;74051;47.120;18.370;2024-01-07T01:01:13;6.96;94.31
83472;SHT30;74051;47.120;18.370;2024-01-07T01:03:40;6.96;94.28
83472;SHT30;74051;47.120;18.370;2024-01-07T01:06:06;6.94;94.17
83472;SHT30;74051;47.120;18.370;2024-01-07T01:08:32;6.90;94.24
83472;SHT30;74051;47.120;18.370;2024-01-07T01:10:59;6.97;94.37
83472;SHT30;74051;47.120;18.370;2024-01-07T01:13:25;6.91;94.21
83472;SHT30;74051;47.120;18.370;2024-01-07T01:15:52;6.96;94.28
83472;SHT30;74051;47.120;18.370;2024-01-07T01:18:18;6.98;94.60
83472;SHT30;74051;47.120;18.370;2024-01-07T01:20:45;6.83;94.23
83472;SHT30;74051;47.120;18.370;2024-01-07T01:23:12;6.88;94.59
83472;SHT30;74051;47.120;18.370;2024-01-07T01:25:38;6.83;94.54
83472;SHT30;74051;47.120;18.370;2024-01-07T01:28:06;6.86;94.70
83472;SHT30;74051;47.120;18.370;2024-01-07T01:30:32;6.86;94.97
83472;SHT30;74051;47.120;18.370;2024-01-07T01:32:58;6.87;95.03
83472;SHT30;74051;47.120;18.370;2024-01-07T01:35:25;6.81;95.01
83472;SHT30;74051;47.120;18.370;2024-01-07T01:37:51;6.88;94.93
83472;SHT30;74051;47.120;18.370;2024-01-07T01:40:20;6.91;94.90
83472;SHT30;74051;47.120;18.370;2024-01-07T01:42:47;6.93;94.65
83472;SHT30;74051;47.120;18.370;2024-01-07T01:45:15;6.91;95.09
83472;SHT30;74051;47.120;18.370;2024-01-07T01:47:42;6.84;94.57
83472;SHT30;74051;47.120;18.370;2024-01-07T01:50:10;6.90;95.11
83472;SHT30;74051;47.120;18.370;2024-01-07T01:52:37;6.84;95.00
83472;SHT30;74051;47.120;18.370;2024-01-07T01:55:04;6.86;95.38
83472;SHT30;74051;47.120;18.370;2024-01-07T01:57:33;6.86;95.26
83472;SHT30;74051;47.120;18.370;2024-01-07T02:00:04;6.79;95.67
83472;SHT30;74051;47.120;18.370;2024-01-07T02:02:32;6.80;95.68
83472;SHT30;74051;47.120;18.370;2024-01-07T02:05:01;6.86;95.64
83472;SHT30;74051;47.120;18.370;2024-01-07T02:07:29;6.87;95.46
83472;SHT30;74051;47.120;18.370;2024-01-07T02:09:56;6.79;95.53
83472;SHT30;74051;47.120;18.370;2024-01-07T02:12:23;6.84;95.49
83472;SHT30;74051;47.120;18.370;2024-01-07T02:14:49;6.91;95.75
83472;SHT30;74051;47.120;18.370;2024-01-07T02:17:16;6.86;95.57
83472;SHT30;74051;47.120;18.370;2024-01-07T02:19:42;6.87;95.55
83472;SHT30;74051;47.120;18.370;2024-01-07T02:22:09;6.86;95.58
83472;SHT30;74051;47.120;18.370;2024-01-07T02:24:35;6.88;95.36
83472;SHT30;74051;47.120;18.370;2024-01-07T02:27:02;6.90;95.74
83472;SHT30;74051;47.120;18.370;2024-01-07T02:29:29;6.87;95.25
83472;SHT30;74051;47.120;18.370;2024-01-07T02:31:55;6.87;95.56
83472;SHT30;74051;47.120;18.370;2024-01-07T02:34:22;6.94;95.48
83472;SHT30;74051;47.120;18.370;2024-01-07T02:36:48;6.94;95.47
83472;SHT30;74051;47.120;18.370;2024-01-07T02:39:14;6.93;95.38
83472;SHT30;74051;47.120;18.370;2024-01-07T02:41:41;6.91;95.52
83472;SHT30;74051;47.120;18.370;2024-01-07T02:44:07;6.90;95.58
83472;SHT30;74051;47.120;18.370;2024-01-07T02:46:34;6.94;95.27
83472;SHT30;74051;47.120;18.370;2024-01-07T02:49:00;6.97;95.32
83472;SHT30;74051;47.120;18.370;2024-01-07T02:51:26;6.93;95.26
83472;SHT30;74051;47.120;18.370;2024-01-07T02:53:53;6.93;95.20
83472;SHT30;74051;47.120;18.370;2024-01-07T02:56:19;6.97;95.16
83472;SHT30;74051;47.120;18.370;2024-01-07T02:58:46;6.94;95.35
83472;SHT30;74051;47.120;18.370;2024-01-07T03:01:13;6.90;95.56
83472;SHT30;74051;47.120;18.370;2024-01-07T03:03:39;6.96;95.66
83472;SHT30;74051;47.120;18.370;2024-01-07T03:06:06;6.96;95.42
83472;SHT30;74051;47.120;18.370;2024-01-07T03:08:32;6.98;95.49
83472;SHT30;74051;47.120;18.370;2024-01-07T03:11:04;6.93;95.51
83472;SHT30;74051;47.120;18.370;2024-01-07T03:13:31;6.96;95.19
83472;SHT30;74051;47.120;18.370;2024-01-07T03:15:57;6.98;95.23
83472;SHT30;74051;47.120;18.370;2024-01-07T03:18:23;6.96;95.25
83472;SHT30;74051;47.120;18.370;2024-01-07T03:20:50;6.97;95.33
83472;SHT30;74051;47.120;18.370;2024-01-07T03:23:16;6.97;95.08
83472;SHT30;74051;47.120;18.370;2024-01-07T03:25:44;6.98;95.17
83472;SHT30;74051;47.120;18.370;2024-01-07T03:28:11;7.00;95.07
83472;SHT30;74051;47.120;18.370;2024-01-07T03:30:37;6.98;95.19
83472;SHT30;74051;47.120;18.370;2024-01-07T03:33:04;6.98;94.95
83472;SHT30;74051;47.120;18.370;2024-01-07T03:35:30;6.97;95.30
83472;SHT30;74051;47.120;18.370;2024-01-07T03:37:56;6.94;95.13
83472;SHT30;74051;47.120;18.370;2024-01-07T03:40:22;6.97;95.10
83472;SHT30;74051;47.120;18.370;2024-01-07T03:42:49;6.96;95.51
83472;SHT30;74051;47.120;18.370;2024-01-07T03:45:15;7.01;95.06
83472;SHT30;74051;47.120;18.370;2024-01-07T03:47:42;7.00;94.94
83472;SHT30;74051;47.120;18.370;2024-01-07T03:50:08;7.01;94.70
83472;SHT30;74051;47.120;18.370;2024-01-07T03:52:35;6.93;94.94
83472;SHT30;74051;47.120;18.370;2024-01-07T03:55:01;6.97;94.90
83472;SHT30;74051;47.120;18.370;2024-01-07T03:57:27;7.00;95.04
83472;SHT30;74051;47.120;18.370;2024-01-07T03:59:54;6.96;94.98
83472;SHT30;74051;47.120;18.370;2024-01-07T04:02:20;6.93;95.31
83472;SHT30;74051;47.120;18.370;2024-01-07T04:04:47;6.93;95.06
83472;SHT30;74051;47.120;18.370;2024-01-07T04:07:13;6.93;95.00
83472;SHT30;74051;47.120;18.370;2024-01-07T04:09:40;6.88;95.14
83472;SHT30;74051;47.120;18.370;2024-01-07T04:12:08;6.90;94.99
83472;SHT30;74051;47.120;18.370;2024-01-07T04:14:35;6.94;94.78
83472;SHT30;74051;47.120;18.370;2024-01-07T04:17:01;6.87;94.64
83472;SHT30;74051;47.120;18.370;2024-01-07T04:19:28;6.90;95.00
83472;SHT30;74051;47.120;18.370;2024-01-07T04:21:54;6.87;94.79
83472;SHT30;74051;47.120;18.370;2024-01-07T04:24:21;6.91;94.96
83472;SHT30;74051;47.120;18.370;2024-01-07T04:26:47;6.87;94.69
83472;SHT30;74051;47.120;18.370;2024-01-07T04:29:13;6.86;94.30
83472;SHT30;74051;47.120;18.370;2024-01-07T04:31:40;6.83;94.36
83472;SHT30;74051;47.120;18.370;2024-01-07T04:34:06;6.76;93.96
83472;SHT30;74051;47.120;18.370;2024-01-07T04:36:32;6.73;93.93
83472;SHT30;74051;47.120;18.370;2024-01-07T04:38:59;6.76;94.20
83472;SHT30;74051;47.120;18.370;2024-01-07T04:41:25;6.77;94.06
83472;SHT30;74051;47.120;18.370;2024-01-07T04:43:52;6.66;94.37
83472;SHT30;74051;47.120;18.370;2024-01-07T04:46:19;6.66;94.23
83472;SHT30;74051;47.120;18.370;2024-01-07T04:48:45;6.63;94.48
83472;SHT30;74051;47.120;18.370;2024-01-07T04:51:12;6.69;94.49
83472;SHT30;74051;47.120;18.370;2024-01-07T04:53:38;6.67;93.98
83472;SHT30;74051;47.120;18.370;2024-01-07T04:56:05;6.62;93.87
83472;SHT30;74051;47.120;18.370;2024-01-07T04:58:31;6.57;94.39
83472;SHT30;74051;47.120;18.370;2024-01-07T05:00:57;6.57;94.24
83472;SHT30;74051;47.120;18.370;2024-01-07T05:03:24;6.54;94.69
83472;SHT30;74051;47.120;18.370;2024-01-07T05:05:50;6.56;94.34
83472;SHT30;74051;47.120;18.370;2024-01-07T05:08:16;6.56;93.50
83472;SHT30;74051;47.120;18.370;2024-01-07T05:10:43;6.59;92.68
83472;SHT30;74051;47.120;18.370;2024-01-07T05:13:09;6.40;93.13
83472;SHT30;74051;47.120;18.370;2024-01-07T05:15:36;6.40;93.37
83472;SHT30;74051;47.120;18.370;2024-01-07T05:18:02;6.32;92.64
83472;SHT30;74051;47.120;18.370;2024-01-07T05:20:28;6.24;93.12
83472;SHT30;74051;47.120;18.370;2024-01-07T05:22:55;6.25;93.30
83472;SHT30;74051;47.120;18.370;2024-01-07T05:25:22;6.26;93.24
83472;SHT30;74051;47.120;18.370;2024-01-07T05:27:48;6.21;93.40
83472;SHT30;74051;47.120;18.370;2024-01-07T05:30:15;6.15;93.08
83472;SHT30;74051;47.120;18.370;2024-01-07T05:32:41;6.17;92.59
83472;SHT30;74051;47.120;18.370;2024-01-07T05:35:08;6.02;92.79
83472;SHT30;74051;47.120;18.370;2024-01-07T05:37:35;6.01;92.82
83472;SHT30;74051;47.120;18.370;2024-01-07T05:40:01;5.97;93.25
83472;SHT30;74051;47.120;18.370;2024-01-07T05:42:27;5.94;93.20
83472;SHT30;74051;47.120;18.370;2024-01-07T05:44:53;5.90;92.58
83472;SHT30;74051;47.120;18.370;2024-01-07T05:47:20;5.86;93.26
83472;SHT30;74051;47.120;18.370;2024-01-07T05:49:46;5.86;92.90
83472;SHT30;74051;47.120;18.370;2024-01-07T05:52:13;5.78;93.29
83472;SHT30;74051;47.120;18.370;2024-01-07T05:54:40;5.84;93.66
83472;SHT30;74051;47.120;18.370;2024-01-07T05:57:06;5.87;93.04
83472;SHT30;74051;47.120;18.370;2024-01-07T05:59:32;5.86;92.37
83472;SHT30;74051;47.120;18.370;2024-01-07T06:01:59;5.81;92.58
83472;SHT30;74051;47.120;18.370;2024-01-07T06:04:25;5.83;91.71
83472;SHT30;74051;47.120;18.370;2024-01-07T06:06:52;5.80;92.22
83472;SHT30;74051;47.120;18.370;2024-01-07T06:09:18;5.78;92.12
83472;SHT30;74051;47.120;18.370;2024-01-07T06:11:44;5.67;92.97
83472;SHT30;74051;47.120;18.370;2024-01-07T06:14:11;5.64;92.53
83472;SHT30;74051;47.120;18.370;2024-01-07T06:16:37;5.69;92.49
83472;SHT30;74051;47.120;18.370;2024-01-07T06:19:04;5.59;92.26
83472;SHT30;74051;47.120;18.370;2024-01-07T06:21:30;5.61;92.76
83472;SHT30;74051;47.120;18.370;2024-01-07T06:23:57;5.60;92.39
83472;SHT30;74051;47.120;18.370;2024-01-07T06:26:23;5.57;91.83
83472;SHT30;74051;47.120;18.370;2024-01-07T06:28:49;5.54;92.31
83472;SHT30;74051;47.120;18.370;2024-01-07T06:31:16;5.53;91.78
83472;SHT30;74051;47.120;18.370;2024-01-07T06:33:42;5.54;91.47
83472;SHT30;74051;47.120;18.370;2024-01-07T06:36:09;5.51;91.80
83472;SHT30;74051;47.120;18.370;2024-01-07T06:38:35;5.49;91.86
83472;SHT30;74051;47.120;18.370;2024-01-07T06:41:01;5.49;92.19
83472;SHT30;74051;47.120;18.370;2024-01-07T06:43:31;5.36;91.61
83472;SHT30;74051;47.120;18.370;2024-01-07T06:45:58;5.38;92.33
83472;SHT30;74051;47.120;18.370;2024-01-07T06:48:24;5.39;92.29
83472;SHT30;74051;47.120;18.370;2024-01-07T06:50:51;5.44;91.99
83472;SHT30;74051;47.120;18.370;2024-01-07T06:53:17;5.39;91.63
83472;SHT30;74051;47.120;18.370;2024-01-07T06:55:44;5.36;91.49
83472;SHT30;74051;47.120;18.370;2024-01-07T06:58:10;5.42;92.97
83472;SHT30;74051;47.120;18.370;2024-01-07T07:00:37;5.35;91.56
83472;SHT30;74051;47.120;18.370;2024-01-07T07:03:03;5.39;91.91
83472;SHT30;74051;47.120;18.370;2024-01-07T07:05:30;5.33;91.23
83472;SHT30;74051;47.120;18.370;2024-01-07T07:07:56;5.29;91.38
83472;SHT30;74051;47.120;18.370;2024-01-07T07:10:22;5.33;91.90
83472;SHT30;74051;47.120;18.370;2024-01-07T07:12:49;5.29;90.98
83472;SHT30;74051;47.120;18.370;2024-01-07T07:15:17;5.23;91.31
83472;SHT30;74051;47.120;18.370;2024-01-07T07:17:43;5.29;91.11
83472;SHT30;74051;47.120;18.370;2024-01-07T07:20:11;5.28;91.68
83472;SHT30;74051;47.120;18.370;2024-01-07T07:22:37;5.29;91.26
83472;SHT30;74051;47.120;18.370;2024-01-07T07:25:04;5.26;90.42
83472;SHT30;74051;47.120;18.370;2024-01-07T07:27:31;5.25;92.48
83472;SHT30;74051;47.120;18.370;2024-01-07T07:29:58;5.22;89.79
83472;SHT30;74051;47.120;18.370;2024-01-07T07:32:24;5.21;90.67
83472;SHT30;74051;47.120;18.370;2024-01-07T07:34:51;5.19;90.62
83472;SHT30;74051;47.120;18.370;2024-01-07T07:37:17;5.18;90.15
83472;SHT30;74051;47.120;18.370;2024-01-07T07:39:44;5.13;90.69
83472;SHT30;74051;47.120;18.370;2024-01-07T07:42:10;5.12;90.74
83472;SHT30;74051;47.120;18.370;2024-01-07T07:44:37;5.13;90.48
83472;SHT30;74051;47.120;18.370;2024-01-07T07:47:05;5.15;90.36
83472;SHT30;74051;47.120;18.370;2024-01-07T07:49:31;5.11;90.53
83472;SHT30;74051;47.120;18.370;2024-01-07T07:51:58;5.08;90.30
83472;SHT30;74051;47.120;18.370;2024-01-07T07:54:24;5.09;89.80
83472;SHT30;74051;47.120;18.370;2024-01-07T07:56:51;5.11;90.81
83472;SHT30;74051;47.120;18.370;2024-01-07T07:59:17;5.07;89.49
83472;SHT30;74051;47.120;18.370;2024-01-07T08:01:45;5.07;89.56
83472;SHT30;74051;47.120;18.370;2024-01-07T08:04:12;5.02;89.68
83472;SHT30;74051;47.120;18.370;2024-01-07T08:06:38;5.05;89.01
83472;SHT30;74051;47.120;18.370;2024-01-07T08:09:04;4.99;89.29
83472;SHT30;74051;47.120;18.370;2024-01-07T08:11:30;4.99;89.91
83472;SHT30;74051;47.120;18.370;2024-01-07T08:13:56;4.92;89.62
83472;SHT30;74051;47.120;18.370;2024-01-07T08:16:23;4.94;88.97
83472;SHT30;74051;47.120;18.370;2024-01-07T08:18:50;4.94;89.19
83472;SHT30;74051;47.120;18.370;2024-01-07T08:21:16;5.01;89.66
83472;SHT30;74051;47.120;18.370;2024-01-07T08:23:42;4.96;89.44
83472;SHT30;74051;47.120;18.370;2024-01-07T08:26:09;4.94;89.61
83472;SHT30;74051;47.120;18.370;2024-01-07T08:28:35;5.01;89.36
83472;SHT30;74051;47.120;18.370;2024-01-07T08:31:02;5.05;89.26
83472;SHT30;74051;47.120;18.370;2024-01-07T08:33:28;5.02;88.37
83472;SHT30;74051;47.120;18.370;2024-01-07T08:35:57;4.92;87.75
83472;SHT30;74051;47.120;18.370;2024-01-07T08:38:24;4.87;88.71
83472;SHT30;74051;47.120;18.370;2024-01-07T08:40:51;4.85;88.73
83472;SHT30;74051;47.120;18.370;2024-01-07T08:43:18;4.92;88.29
83472;SHT30;74051;47.120;18.370;2024-01-07T08:45:44;4.84;88.23
83472;SHT30;74051;47.120;18.370;2024-01-07T08:48:11;4.82;89.01
83472;SHT30;74051;47.120;18.370;2024-01-07T08:50:38;4.85;88.79
83472;SHT30;74051;47.120;18.370;2024-01-07T08:53:05;4.88;89.12
83472;SHT30;74051;47.120;18.370;2024-01-07T08:55:31;4.87;88.02
83472;SHT30;74051;47.120;18.370;2024-01-07T08:57:57;4.80;88.62
83472;SHT30;74051;47.120;18.370;2024-01-07T09:00:24;4.87;89.92
83472;SHT30;74051;47.120;18.370;2024-01-07T09:02:53;4.85;88.54
83472;SHT30;74051;47.120;18.370;2024-01-07T09:05:19;4.81;88.92
83472;SHT30;74051;47.120;18.370;2024-01-07T09:07:45;4.85;88.41
83472;SHT30;74051;47.120;18.370;2024-01-07T09:10:11;4.78;88.83
83472;SHT30;74051;47.120;18.370;2024-01-07T09:12:39;4.75;88.52
83472;SHT30;74051;47.120;18.370;2024-01-07T09:15:06;4.77;88.28
83472;SHT30;74051;47.120;18.370;2024-01-07T09:17:37;4.78;89.26
83472;SHT30;74051;47.120;18.370;2024-01-07T09:20:04;4.77;88.51
83472;SHT30;74051;47.120;18.370;2024-01-07T09:22:34;4.78;88.64
83472;SHT30;74051;47.120;18.370;2024-01-07T09:25:05;4.74;88.53
83472;SHT30;74051;47.120;18.370;2024-01-07T09:27:33;4.71;88.49
83472;SHT30;74051;47.120;18.370;2024-01-07T09:29:59;4.75;88.43
83472;SHT30;74051;47.120;18.370;2024-01-07T09:32:25;4.67;87.36
83472;SHT30;74051;47.120;18.370;2024-01-07T09:34:52;4.72;89.28
83472;SHT30;74051;47.120;18.370;2024-01-07T09:37:18;4.67;88.03
83472;SHT30;74051;47.120;18.370;2024-01-07T09:39:45;4.64;87.95
83472;SHT30;74051;47.120;18.370;2024-01-07T09:42:17;4.57;88.11
83472;SHT30;74051;47.120;18.370;2024-01-07T09:44:44;4.60;87.79
83472;SHT30;74051;47.120;18.370;2024-01-07T09:47:14;4.64;87.60
83472;SHT30;74051;47.120;18.370;2024-01-07T09:49:43;4.56;87.54
83472;SHT30;74051;47.120;18.370;2024-01-07T09:52:11;4.60;87.39
83472;SHT30;74051;47.120;18.370;2024-01-07T09:54:39;4.63;87.64
83472;SHT30;74051;47.120;18.370;2024-01-07T09:57:07;4.58;87.37
83472;SHT30;74051;47.120;18.370;2024-01-07T09:59:35;4.49;87.14
83472;SHT30;74051;47.120;18.370;2024-01-07T10:02:03;4.53;88.00
83472;SHT30;74051;47.120;18.370;2024-01-07T10:04:29;4.54;88.82
83472;SHT30;74051;47.120;18.370;2024-01-07T10:06:57;4.42;86.79
83472;SHT30;74051;47.120;18.370;2024-01-07T10:09:24;4.49;88.05
83472;SHT30;74051;47.120;18.370;2024-01-07T10:11:52;4.37;87.06
83472;SHT30;74051;47.120;18.370;2024-01-07T10:14:19;4.47;88.53
83472;SHT30;74051;47.120;18.370;2024-01-07T10:16:48;4.50;86.72
83472;SHT30;74051;47.120;18.370;2024-01-07T10:19:22;4.42;87.57
83472;SHT30;74051;47.120;18.370;2024-01-07T10:21:59;4.51;88.61
83472;SHT30;74051;47.120;18.370;2024-01-07T10:24:34;4.51;87.14
83472;SHT30;74051;47.120;18.370;2024-01-07T10:27:03;4.43;85.92
83472;SHT30;74051;47.120;18.370;2024-01-07T10:29:29;4.29;87.03
83472;SHT30;74051;47.120;18.370;2024-01-07T10:31:57;4.22;87.51
83472;SHT30;74051;47.120;18.370;2024-01-07T10:34:23;4.26;87.44
83472;SHT30;74051;47.120;18.370;2024-01-07T10:36:52;4.19;87.66
83472;SHT30;74051;47.120;18.370;2024-01-07T10:39:20;4.23;86.67
83472;SHT30;74051;47.120;18.370;2024-01-07T10:41:47;4.24;88.02
83472;SHT30;74051;47.120;18.370;2024-01-07T10:44:14;4.29;87.93
83472;SHT30;74051;47.120;18.370;2024-01-07T10:46:40;4.19;86.48
83472;SHT30;74051;47.120;18.370;2024-01-07T10:49:20;4.10;88.14
83472;SHT30;74051;47.120;18.370;2024-01-07T10:52:08;4.13;88.17
83472;SHT30;74051;47.120;18.370;2024-01-07T10:54:39;4.14;87.71
83472;SHT30;74051;47.120;18.370;2024-01-07T10:59:57;4.02;87.01
83472;SHT30;74051;47.120;18.370;2024-01-07T11:02:25;4.03;87.37
83472;SHT30;74051;47.120;18.370;2024-01-07T11:05:15;4.07;87.58
83472;SHT30;74051;47.120;18.370;2024-01-07T11:07:48;4.07;87.35
83472;SHT30;74051;47.120;18.370;2024-01-07T11:10:26;4.09;87.36
83472;SHT30;74051;47.120;18.370;2024-01-07T11:12:57;4.12;88.60
83472;SHT30;74051;47.120;18.370;2024-01-07T11:15:50;4.05;87.50
83472;SHT30;74051;47.120;18.370;2024-01-07T11:18:18;4.12;86.34
83472;SHT30;74051;47.120;18.370;2024-01-07T11:20:46;4.07;88.43
83472;SHT30;74051;47.120;18.370;2024-01-07T11:23:32;4.19;87.45
83472;SHT30;74051;47.120;18.370;2024-01-07T11:26:06;4.07;85.93
83472;SHT30;74051;47.120;18.370;2024-01-07T11:28:45;4.12;88.32
83472;SHT30;74051;47.120;18.370;2024-01-07T11:31:12;3.98;88.15
83472;SHT30;74051;47.120;18.370;2024-01-07T11:33:42;4.01;88.00
83472;SHT30;74051;47.120;18.370;2024-01-07T11:36:11;4.01;86.64
83472;SHT30;74051;47.120;18.370;2024-01-07T11:38:41;3.91;87.87
83472;SHT30;74051;47.120;18.370;2024-01-07T11:41:09;3.85;87.87
83472;SHT30;74051;47.120;18.370;2024-01-07T11:43:36;3.89;87.61
83472;SHT30;74051;47.120;18.370;2024-01-07T11:46:03;3.82;88.23
83472;SHT30;74051;47.120;18.370;2024-01-07T11:48:30;3.78;87.88
83472;SHT30;74051;47.120;18.370;2024-01-07T11:50:56;3.72;87.52
83472;SHT30;74051;47.120;18.370;2024-01-07T11:53:22;3.78;88.97
83472;SHT30;74051;47.120;18.370;2024-01-07T11:55:49;3.70;86.89
83472;SHT30;74051;47.120;18.370;2024-01-07T11:58:15;3.78;87.65
83472;SHT30;74051;47.120;18.370;2024-01-07T12:00:41;3.72;87.69
83472;SHT30;74051;47.120;18.370;2024-01-07T12:03:08;3.71;88.29
83472;SHT30;74051;47.120;18.370;2024-01-07T12:05:34;3.61;89.52
83472;SHT30;74051;47.120;18.370;2024-01-07T12:08:00;3.54;87.45
83472;SHT30;74051;47.120;18.370;2024-01-07T12:10:27;3.53;88.12
83472;SHT30;74051;47.120;18.370;2024-01-07T12:12:54;3.53;88.13
83472;SHT30;74051;47.120;18.370;2024-01-07T12:15:21;3.50;87.38
83472;SHT30;74051;47.120;18.370;2024-01-07T12:17:57;3.48;87.91
83472;SHT30;74051;47.120;18.370;2024-01-07T12:20:24;3.51;87.77
83472;SHT30;74051;47.120;18.370;2024-01-07T12:22:50;3.47;87.95
83472;SHT30;74051;47.120;18.370;2024-01-07T12:25:23;3.34;87.17
83472;SHT30;74051;47.120;18.370;2024-01-07T12:27:52;3.30;88.76
83472;SHT30;74051;47.120;18.370;2024-01-07T12:30:20;3.28;87.20
83472;SHT30;74051;47.120;18.370;2024-01-07T12:32:46;3.34;88.76
83472;SHT30;74051;47.120;18.370;2024-01-07T12:35:13;3.33;87.38
83472;SHT30;74051;47.120;18.370;2024-01-07T12:37:39;3.26;87.11
83472;SHT30;74051;47.120;18.370;2024-01-07T12:40:06;3.33;88.76
83472;SHT30;74051;47.120;18.370;2024-01-07T12:42:35;3.31;87.59
83472;SHT30;74051;47.120;18.370;2024-01-07T12:45:02;3.28;87.18
83472;SHT30;74051;47.120;18.370;2024-01-07T12:47:29;3.23;87.30
83472;SHT30;74051;47.120;18.370;2024-01-07T12:49:55;3.26;86.22
83472;SHT30;74051;47.120;18.370;2024-01-07T12:52:22;3.28;87.30
83472;SHT30;74051;47.120;18.370;2024-01-07T12:54:48;3.27;86.91
83472;SHT30;74051;47.120;18.370;2024-01-07T12:57:14;3.22;88.40
83472;SHT30;74051;47.120;18.370;2024-01-07T12:59:40;3.15;87.95
83472;SHT30;74051;47.120;18.370;2024-01-07T13:02:07;3.10;87.41
83472;SHT30;74051;47.120;18.370;2024-01-07T13:04:33;3.19;89.56
83472;SHT30;74051;47.120;18.370;2024-01-07T13:07:00;3.07;87.62
83472;SHT30;74051;47.120;18.370;2024-01-07T13:09:26;2.99;85.87
83472;SHT30;74051;47.120;18.370;2024-01-07T13:11:52;2.89;86.75
83472;SHT30;74051;47.120;18.370;2024-01-07T13:14:18;2.84;87.14
83472;SHT30;74051;47.120;18.370;2024-01-07T13:16:45;2.96;88.75
83472;SHT30;74051;47.120;18.370;2024-01-07T13:19:11;2.85;87.00
83472;SHT30;74051;47.120;18.370;2024-01-07T13:21:38;2.93;86.98
83472;SHT30;74051;47.120;18.370;2024-01-07T13:24:05;2.86;87.79
83472;SHT30;74051;47.120;18.370;2024-01-07T13:26:31;2.82;87.46
83472;SHT30;74051;47.120;18.370;2024-01-07T13:28:58;2.75;88.39
83472;SHT30;74051;47.120;18.370;2024-01-07T13:31:26;2.66;88.33
83472;SHT30;74051;47.120;18.370;2024-01-07T13:33:52;2.75;87.48
83472;SHT30;74051;47.120;18.370;2024-01-07T13:36:19;2.74;86.54
83472;SHT30;74051;47.120;18.370;2024-01-07T13:38:45;2.72;87.49
83472;SHT30;74051;47.120;18.370;2024-01-07T13:41:16;2.61;86.87
83472;SHT30;74051;47.120;18.370;2024-01-07T13:43:43;2.66;88.26
83472;SHT30;74051;47.120;18.370;2024-01-07T13:46:11;2.59;88.61
83472;SHT30;74051;47.120;18.370;2024-01-07T13:48:38;2.64;87.78
83472;SHT30;74051;47.120;18.370;2024-01-07T13:51:09;2.61;89.29
83472;SHT30;74051;47.120;18.370;2024-01-07T13:53:35;2.64;88.02
83472;SHT30;74051;47.120;18.370;2024-01-07T13:56:01;2.55;87.64
83472;SHT30;74051;47.120;18.370;2024-01-07T13:58:28;2.49;86.77
83472;SHT30;74051;47.120;18.370;2024-01-07T14:00:54;2.52;89.04
83472;SHT30;74051;47.120;18.370;2024-01-07T14:03:20;2.52;89.60
83472;SHT30;74051;47.120;18.370;2024-01-07T14:05:46;2.49;87.85
83472;SHT30;74051;47.120;18.370;2024-01-07T14:08:13;2.42;88.50
83472;SHT30;74051;47.120;18.370;2024-01-07T14:10:40;2.55;88.83
83472;SHT30;74051;47.120;18.370;2024-01-07T14:13:06;2.47;86.16
83472;SHT30;74051;47.120;18.370;2024-01-07T14:15:32;2.42;86.84
83472;SHT30;74051;47.120;18.370;2024-01-07T14:17:59;2.47;88.24
83472;SHT30;74051;47.120;18.370;2024-01-07T14:20:25;2.51;88.14
83472;SHT30;74051;47.120;18.370;2024-01-07T14:22:51;2.38;87.17
83472;SHT30;74051;47.120;18.370;2024-01-07T14:25:17;2.34;87.07
83472;SHT30;74051;47.120;18.370;2024-01-07T14:27:44;2.37;86.50
83472;SHT30;74051;47.120;18.370;2024-01-07T14:30:10;2.31;87.04
83472;SHT30;74051;47.120;18.370;2024-01-07T14:32:37;2.33;86.59
83472;SHT30;74051;47.120;18.370;2024-01-07T14:35:03;2.26;88.50
83472;SHT30;74051;47.120;18.370;2024-01-07T14:37:30;2.26;87.68
83472;SHT30;74051;47.120;18.370;2024-01-07T14:39:57;2.24;87.09
83472;SHT30;74051;47.120;18.370;2024-01-07T14:42:23;2.27;87.33
83472;SHT30;74051;47.120;18.370;2024-01-07T14:44:50;2.24;88.71
83472;SHT30;74051;47.120;18.370;2024-01-07T14:47:17;2.27;87.24
83472;SHT30;74051;47.120;18.370;2024-01-07T14:49:44;2.35;89.19
83472;SHT30;74051;47.120;18.370;2024-01-07T14:52:10;2.41;88.35
83472;SHT30;74051;47.120;18.370;2024-01-07T14:54:37;2.37;85.87
83472;SHT30;74051;47.120;18.370;2024-01-07T14:57:03;2.41;87.61
83472;SHT30;74051;47.120;18.370;2024-01-07T14:59:30;2.35;86.80
83472;SHT30;74051;47.120;18.370;2024-01-07T15:01:57;2.31;86.05
83472;SHT30;74051;47.120;18.370;2024-01-07T15:04:23;2.35;88.96
83472;SHT30;74051;47.120;18.370;2024-01-07T15:06:50;2.28;85.90
83472;SHT30;74051;47.120;18.370;2024-01-07T15:09:16;2.23;88.56
83472;SHT30;74051;47.120;18.370;2024-01-07T15:11:42;2.24;86.06
83472;SHT30;74051;47.120;18.370;2024-01-07T15:14:11;2.28;87.17
83472;SHT30;74051;47.120;18.370;2024-01-07T15:16:37;2.18;85.15
83472;SHT30;74051;47.120;18.370;2024-01-07T15:19:03;2.28;88.10
83472;SHT30;74051;47.120;18.370;2024-01-07T15:21:30;2.21;85.78
83472;SHT30;74051;47.120;18.370;2024-01-07T15:23:57;2.27;86.75
83472;SHT30;74051;47.120;18.370;2024-01-07T15:26:23;2.24;86.02
83472;SHT30;74051;47.120;18.370;2024-01-07T15:28:50;2.14;85.29
83472;SHT30;74051;47.120;18.370;2024-01-07T15:31:16;2.11;85.26